Time;durP1;ratioP1;P1;durP2;ratioP2;P2;SDS_P1;SDS_P2;PMS_P1;PMS_P2;Temp;Humidity;BMP_temperature;BMP_pressure;BME280_temperature;BME280_humidity;BME280_pressure;Samples;Min_cycle;Max_cycle;Signal;HPM_P1;HPM_P2
2021/01/25 00:01:36;;;;;;;7.80;3.33;;;;;;;2.19;100.00;99492.39;1724050;83;20969;-75
2021/01/25 00:04:05;;;;;;;5.97;2.90;;;;;;;2.18;100.00;99492.89;1723904;83;21817;-76
2021/01/25 00:06:33;;;;;;;8.50;2.80;;;;;;;2.19;100.00;99491.89;1723854;83;20981;-76
2021/01/25 00:09:01;;;;;;;4.10;2.07;;;;;;;2.18;100.00;99490.22;1723991;83;21732;-78
2021/01/25 00:11:29;;;;;;;3.10;2.03;;;;;;;2.17;100.00;99484.52;1755228;80;21029;-76
2021/01/25 00:13:59;;;;;;;5.97;2.23;;;;;;;2.18;100.00;99475.55;1760111;81;21025;-76
2021/01/25 00:16:28;;;;;;;5.50;2.73;;;;;;;2.16;100.00;99477.50;1791044;80;21060;-76
2021/01/25 00:18:57;;;;;;;7.67;3.07;;;;;;;2.15;100.00;99470.47;1760038;81;21052;-76
2021/01/25 00:21:26;;;;;;;4.57;2.70;;;;;;;2.12;100.00;99470.72;1780817;80;21471;-76
2021/01/25 00:23:54;;;;;;;2.63;1.70;;;;;;;2.10;100.00;99471.34;1757500;81;21115;-76
2021/01/25 00:26:22;;;;;;;3.53;2.47;;;;;;;2.08;100.00;99463.97;1757619;81;21010;-76
2021/01/25 00:28:51;;;;;;;4.00;2.83;;;;;;;2.09;100.00;99461.67;1726065;83;21372;-76
2021/01/25 00:31:19;;;;;;;6.97;3.23;;;;;;;2.09;100.00;99469.67;1729971;80;21482;-75
2021/01/25 00:33:47;;;;;;;4.13;2.63;;;;;;;2.09;100.00;99461.17;1773185;81;21114;-76
2021/01/25 00:36:15;;;;;;;6.37;3.40;;;;;;;2.11;100.00;99467.72;1741187;82;20942;-77
2021/01/25 00:38:43;;;;;;;3.37;2.07;;;;;;;2.08;100.00;99454.13;1741023;82;20956;-76
2021/01/25 00:41:11;;;;;;;4.03;2.47;;;;;;;2.09;100.00;99455.00;1754559;81;21360;-76
2021/01/25 00:43:39;;;;;;;4.50;3.20;;;;;;;2.09;100.00;99449.67;1754199;81;21016;-76
2021/01/25 00:46:08;;;;;;;5.10;3.27;;;;;;;2.09;100.00;99442.50;1754334;81;21005;-76
2021/01/25 00:48:36;;;;;;;6.73;3.00;;;;;;;2.09;100.00;99445.17;1754388;81;21009;-77
2021/01/25 00:51:05;;;;;;;5.07;2.40;;;;;;;2.09;100.00;99447.00;1754223;81;21333;-76
2021/01/25 00:53:34;;;;;;;2.57;2.37;;;;;;;2.08;100.00;99446.63;1754289;81;21535;-77
2021/01/25 00:56:02;;;;;;;2.00;1.87;;;;;;;2.08;100.00;99445.30;1754270;81;20988;-77
2021/01/25 00:58:30;;;;;;;4.47;2.73;;;;;;;2.09;100.00;99444.34;1754144;81;20973;-77
2021/01/25 01:00:58;;;;;;;4.40;3.03;;;;;;;2.08;100.00;99450.13;1763337;79;20949;-76
2021/01/25 01:03:26;;;;;;;6.33;3.13;;;;;;;2.09;100.00;99455.84;1801618;79;21363;-77
2021/01/25 01:05:54;;;;;;;7.80;3.50;;;;;;;2.11;100.00;99462.84;1801569;79;22216;-76
2021/01/25 01:08:22;;;;;;;4.83;2.20;;;;;;;2.10;100.00;99455.34;1801444;79;20993;-76
2021/01/25 01:10:50;;;;;;;1.50;1.23;;;;;;;2.09;100.00;99451.00;1801512;79;21063;-77
2021/01/25 01:13:18;;;;;;;4.07;2.27;;;;;;;2.09;100.00;99457.67;1801525;79;21032;-77
2021/01/25 01:15:46;;;;;;;4.83;2.10;;;;;;;2.08;100.00;99462.63;1801514;79;20989;-75
2021/01/25 01:18:14;;;;;;;6.50;2.97;;;;;;;2.07;100.00;99453.80;1801600;79;21722;-76
2021/01/25 01:20:44;;;;;;;3.33;2.40;;;;;;;2.07;100.00;99453.80;1816528;78;20988;-75
2021/01/25 01:23:12;;;;;;;2.47;1.73;;;;;;;2.07;100.00;99458.27;1831344;78;21004;-75
2021/01/25 01:25:40;;;;;;;6.37;3.33;;;;;;;2.07;100.00;99456.47;1824583;78;21633;-77
2021/01/25 01:28:08;;;;;;;5.27;3.23;;;;;;;2.09;100.00;99459.84;1821055;78;20983;-75
2021/01/25 01:30:35;;;;;;;6.07;3.00;;;;;;;2.12;100.00;99459.22;1821407;78;21661;-76
2021/01/25 01:33:03;;;;;;;6.97;3.53;;;;;;;2.12;100.00;99462.72;1821096;78;20969;-76
2021/01/25 01:35:32;;;;;;;4.03;2.67;;;;;;;2.12;100.00;99459.22;1828258;76;20942;-75
2021/01/25 01:38:01;;;;;;;4.60;2.33;;;;;;;2.11;100.00;99466.38;1868147;76;21028;-75
2021/01/25 01:40:29;;;;;;;5.77;3.07;;;;;;;2.12;100.00;99468.55;1828693;76;20995;-76
2021/01/25 01:42:57;;;;;;;4.87;3.17;;;;;;;2.12;100.00;99464.55;1782265;80;21132;-76
2021/01/25 01:45:25;;;;;;;4.70;2.50;;;;;;;2.12;100.00;99466.72;1821374;76;20989;-75
2021/01/25 01:47:54;;;;;;;6.73;3.23;;;;;;;2.12;100.00;99464.05;1821227;78;21534;-76
2021/01/25 01:50:23;;;;;;;3.80;2.77;;;;;;;2.09;100.00;99467.84;1821035;78;20918;-75
2021/01/25 01:52:51;;;;;;;4.87;3.13;;;;;;;2.07;100.00;99460.93;1821202;78;21016;-77
2021/01/25 01:55:21;;;;;;;2.30;2.10;;;;;;;2.04;100.00;99460.72;1821177;78;22673;-76
2021/01/25 01:57:52;;;;;;;10.90;3.43;;;;;;;2.04;100.00;99473.22;1821040;78;21000;-75
2021/01/25 02:00:21;;;;;;;20.40;6.62;;;;;;;2.04;100.00;99490.55;1821288;78;21016;-75
2021/01/25 02:02:49;;;;;;;20.07;7.60;;;;;;;2.02;100.00;99496.01;1821064;78;21001;-75
2021/01/25 02:05:17;;;;;;;13.87;6.63;;;;;;;2.00;100.00;99497.09;1821306;78;21099;-76
2021/01/25 02:07:50;;;;;;;4.77;3.37;;;;;;;1.97;100.00;99490.22;1821218;78;21574;-76
2021/01/25 02:10:19;;;;;;;5.25;3.92;;;;;;;1.96;100.00;99476.52;1821235;78;21019;-75
2021/01/25 02:12:56;;;;;;;4.93;2.40;;;;;;;1.95;100.00;99473.97;1821284;78;21448;-75
2021/01/25 02:15:24;;;;;;;7.97;3.30;;;;;;;1.95;100.00;99472.64;1821166;78;20977;-76
2021/01/25 02:17:52;;;;;;;4.80;2.80;;;;;;;1.94;100.00;99474.47;1821240;78;20988;-75
2021/01/25 02:20:35;;;;;;;6.40;2.93;;;;;;;1.92;100.00;99473.75;1822975;78;21320;-76
2021/01/25 02:23:32;;;;;;;2.72;2.00;;;;;;;1.90;100.00;99485.05;1813415;79;21614;-76
2021/01/25 02:26:17;;;;;;;6.03;2.57;;;;;;;1.90;100.00;99485.05;1808925;79;21027;-76
2021/01/25 02:28:45;;;;;;;5.57;2.63;;;;;;;1.88;100.00;99480.33;1797032;79;21049;-76
2021/01/25 02:31:13;;;;;;;12.40;3.47;;;;;;;1.87;100.00;99480.80;1789053;79;21594;-76
2021/01/25 02:33:54;;;;;;;9.87;3.17;;;;;;;1.87;100.00;99479.96;1765605;81;21421;-77
2021/01/25 02:36:30;;;;;;;6.87;3.27;;;;;;;1.88;100.00;99475.00;1890387;76;26669;-76
2021/01/25 02:38:59;;;;;;;3.63;3.10;;;;;;;1.84;100.00;99476.21;1861124;77;20939;-75
2021/01/25 02:41:28;;;;;;;5.40;2.20;;;;;;;1.83;100.00;99470.54;1827350;77;21334;-76
2021/01/25 02:43:58;;;;;;;4.73;2.87;;;;;;;1.83;100.00;99462.55;1861175;77;21393;-76
2021/01/25 02:46:26;;;;;;;8.90;4.20;;;;;;;1.83;100.00;99463.88;1861039;77;20986;-76
2021/01/25 02:48:55;;;;;;;9.10;3.77;;;;;;;1.81;100.00;99457.34;1828395;77;21583;-76
2021/01/25 02:51:23;;;;;;;5.50;2.93;;;;;;;1.80;100.00;99452.13;1861249;77;20955;-77
2021/01/25 02:53:51;;;;;;;4.63;3.10;;;;;;;1.78;100.00;99448.75;1861435;77;22498;-77
2021/01/25 02:56:19;;;;;;;7.80;3.73;;;;;;;1.76;100.00;99446.21;1861161;77;21113;-76
2021/01/25 02:58:47;;;;;;;12.03;4.17;;;;;;;1.74;100.00;99437.50;1861065;77;20950;-76
2021/01/25 03:01:15;;;;;;;5.43;3.33;;;;;;;1.72;100.00;99431.46;1861055;77;20975;-76
2021/01/25 03:03:43;;;;;;;4.27;3.33;;;;;;;1.69;100.00;99432.55;1861299;77;21539;-76
2021/01/25 03:06:11;;;;;;;5.23;2.53;;;;;;;1.67;100.00;99437.66;1861232;77;21263;-77
2021/01/25 03:08:39;;;;;;;5.10;3.10;;;;;;;1.64;100.00;99428.09;1861084;77;20990;-77
2021/01/25 03:11:08;;;;;;;3.57;2.33;;;;;;;1.66;100.00;99427.97;1861091;77;20990;-77
2021/01/25 03:13:36;;;;;;;6.37;3.67;;;;;;;1.65;100.00;99431.63;1861076;77;21101;-77
2021/01/25 03:16:08;;;;;;;9.00;3.73;;;;;;;1.64;100.00;99430.75;1861120;77;20986;-75
2021/01/25 03:18:35;;;;;;;11.13;4.30;;;;;;;1.65;100.00;99439.62;1861133;77;21257;-76
2021/01/25 03:21:03;;;;;;;4.10;3.07;;;;;;;1.64;100.00;99434.75;1860991;77;20987;-76
2021/01/25 03:23:31;;;;;;;6.03;3.57;;;;;;;1.65;100.00;99430.28;1861200;77;21658;-75
2021/01/25 03:25:59;;;;;;;6.97;2.70;;;;;;;1.63;100.00;99445.07;1852961;77;20909;-75
2021/01/25 03:28:27;;;;;;;6.13;3.00;;;;;;;1.63;100.00;99449.53;1830876;78;21036;-76
2021/01/25 03:30:55;;;;;;;10.37;4.23;;;;;;;1.61;100.00;99433.70;1768794;80;22714;-75
2021/01/25 03:33:23;;;;;;;4.97;2.83;;;;;;;1.61;100.00;99435.03;1814324;79;21009;-77
2021/01/25 03:35:52;;;;;;;2.83;2.07;;;;;;;1.61;100.00;99430.17;1796275;79;21243;-75
2021/01/25 03:38:19;;;;;;;6.97;3.00;;;;;;;1.61;100.00;99423.04;1832305;78;21522;-76
2021/01/25 03:40:48;;;;;;;5.53;3.40;;;;;;;1.63;100.00;99432.21;1799787;79;20930;-76
2021/01/25 03:43:15;;;;;;;7.27;4.10;;;;;;;1.62;100.00;99435.87;1832209;78;21195;-75
2021/01/25 03:45:43;;;;;;;7.03;3.77;;;;;;;1.62;100.00;99419.88;1799733;79;20953;-77
2021/01/25 03:48:11;;;;;;;6.50;3.20;;;;;;;1.63;100.00;99428.21;1831637;78;20934;-76
2021/01/25 03:50:39;;;;;;;2.33;2.13;;;;;;;1.62;100.00;99430.05;1799202;79;21439;-76
2021/01/25 03:53:07;;;;;;;3.67;2.83;;;;;;;1.62;100.00;99430.05;1831586;78;20973;-76
2021/01/25 03:55:35;;;;;;;2.83;2.00;;;;;;;1.65;100.00;99434.28;1799091;79;21371;-76
2021/01/25 03:58:02;;;;;;;4.07;2.77;;;;;;;1.64;100.00;99433.91;1831634;78;20985;-75
2021/01/25 04:00:30;;;;;;;6.40;4.27;;;;;;;1.64;100.00;99436.58;1799389;79;21542;-75
2021/01/25 04:02:59;;;;;;;7.73;4.50;;;;;;;1.63;100.00;99437.08;1831464;78;21131;-75
2021/01/25 04:05:27;;;;;;;7.33;3.70;;;;;;;1.63;100.00;99441.08;1799381;79;20917;-76
2021/01/25 04:07:55;;;;;;;5.27;3.43;;;;;;;1.62;100.00;99444.70;1831524;78;21806;-76
2021/01/25 04:10:22;;;;;;;4.50;2.87;;;;;;;1.63;100.00;99443.73;1799124;79;21009;-76
2021/01/25 04:12:50;;;;;;;4.13;2.40;;;;;;;1.64;100.00;99439.25;1831571;78;20965;-76
2021/01/25 04:15:18;;;;;;;6.47;3.40;;;;;;;1.66;100.00;99454.12;1799239;79;21470;-75
2021/01/25 04:17:46;;;;;;;7.10;3.60;;;;;;;1.64;100.00;99435.25;1831569;78;21110;-76
2021/01/25 04:20:14;;;;;;;7.00;4.00;;;;;;;1.64;100.00;99452.08;1799144;79;21211;-76
2021/01/25 04:22:42;;;;;;;5.27;3.57;;;;;;;1.63;100.00;99437.54;1831481;78;21013;-75
2021/01/25 04:25:12;;;;;;;6.63;3.60;;;;;;;1.64;100.00;99436.58;1799047;79;20997;-76
2021/01/25 04:27:40;;;;;;;4.37;2.60;;;;;;;1.64;100.00;99444.08;1802399;78;21476;-76
2021/01/25 04:30:10;;;;;;;2.37;2.03;;;;;;;1.63;100.00;99441.08;1801564;79;20942;-76
2021/01/25 04:32:39;;;;;;;4.37;3.10;;;;;;;1.64;100.00;99454.73;1826598;78;22437;-76
2021/01/25 04:35:10;;;;;;;7.87;3.83;;;;;;;1.67;100.00;99448.33;1798884;79;21076;-76
2021/01/25 04:37:38;;;;;;;5.77;3.00;;;;;;;1.68;100.00;99442.00;1831665;78;21060;-76
2021/01/25 04:40:10;;;;;;;6.83;3.40;;;;;;;1.70;100.00;99448.08;1799154;79;21581;-76
2021/01/25 04:42:39;;;;;;;3.30;2.87;;;;;;;1.73;100.00;99452.29;1831782;78;20977;-74
2021/01/25 04:45:09;;;;;;;5.87;2.77;;;;;;;1.73;100.00;99449.12;1799242;79;21334;-76
2021/01/25 04:47:40;;;;;;;7.10;4.00;;;;;;;1.77;100.00;99448.38;1831613;78;20977;-76
2021/01/25 04:50:09;;;;;;;7.77;3.73;;;;;;;1.78;100.00;99457.59;1783441;79;21033;-76
2021/01/25 04:52:39;;;;;;;10.63;4.20;;;;;;;1.79;100.00;99461.95;1831417;78;21016;-75
2021/01/25 04:55:08;;;;;;;7.63;4.27;;;;;;;1.81;100.00;99467.16;1799155;79;20929;-75
2021/01/25 04:57:37;;;;;;;3.53;2.43;;;;;;;1.82;100.00;99468.83;1831788;78;21195;-76
2021/01/25 05:02:40;;;;;;;3.87;2.30;;;;;;;1.86;100.00;99451.13;1747776;81;21503;-76
2021/01/25 05:05:15;;;;;;;14.13;5.90;;;;;;;1.92;100.00;99449.76;1874256;76;27721;-74
2021/01/25 05:07:43;;;;;;;11.70;4.50;;;;;;;1.93;100.00;99451.93;1861446;77;20970;-76
2021/01/25 05:10:12;;;;;;;12.03;5.07;;;;;;;1.97;100.00;99456.88;1861427;77;21354;-76
2021/01/25 05:12:47;;;;;;;13.37;5.33;;;;;;;1.99;100.00;99450.92;1861281;77;21532;-76
2021/01/25 05:15:31;;;;;;;3.47;2.77;;;;;;;2.00;100.00;99457.09;1861403;77;21368;-76
2021/01/25 05:18:06;;;;;;;2.95;2.52;;;;;;;2.02;100.00;99460.47;1861601;77;24733;-76
2021/01/25 05:20:34;;;;;;;5.90;3.63;;;;;;;2.02;100.00;99452.47;1792828;80;21013;-75
2021/01/25 05:23:13;;;;;;;4.43;2.77;;;;;;;2.04;100.00;99452.72;1792965;80;21431;-76
2021/01/25 05:25:41;;;;;;;6.37;3.27;;;;;;;2.08;100.00;99457.30;1794158;79;21021;-77
2021/01/25 05:28:19;;;;;;;8.57;4.47;;;;;;;2.08;100.00;99462.14;1811956;79;21025;-76
2021/01/25 05:30:47;;;;;;;9.67;3.83;;;;;;;2.09;100.00;99455.84;1812433;79;21033;-78
2021/01/25 05:33:27;;;;;;;10.37;4.43;;;;;;;2.10;100.00;99459.34;1817336;78;21018;-77
2021/01/25 05:35:56;;;;;;;8.57;4.17;;;;;;;2.12;100.00;99455.22;1816280;79;21205;-78
2021/01/25 05:38:23;;;;;;;7.37;3.80;;;;;;;2.11;100.00;99451.71;1817771;79;21177;-76
2021/01/25 05:40:56;;;;;;;7.30;3.53;;;;;;;2.13;100.00;99455.09;1778811;79;21546;-76
2021/01/25 05:43:32;;;;;;;5.10;3.17;;;;;;;2.14;100.00;99459.42;1778725;80;20966;-77
2021/01/25 05:46:15;;;;;;;11.10;5.07;;;;;;;2.15;100.00;99453.13;1776554;80;20958;-77
2021/01/25 05:48:43;;;;;;;10.53;4.45;;;;;;;2.17;100.00;99452.50;1778953;79;21207;-76
2021/01/25 05:51:19;;;;;;;9.33;4.57;;;;;;;2.18;100.00;99447.54;1778612;80;21667;-77
2021/01/25 05:53:54;;;;;;;11.07;4.10;;;;;;;2.22;100.00;99442.28;1845689;76;27046;-76
2021/01/25 05:56:22;;;;;;;4.93;3.40;;;;;;;2.22;100.00;99440.95;1811032;78;21589;-78
2021/01/25 05:58:50;;;;;;;5.70;3.60;;;;;;;2.22;100.00;99441.45;1815923;78;21137;-77
2021/01/25 06:01:21;;;;;;;5.87;2.93;;;;;;;2.26;100.00;99444.20;1815821;79;20996;-77
2021/01/25 06:03:49;;;;;;;5.70;3.10;;;;;;;2.28;100.00;99440.44;1815855;79;21011;-76
2021/01/25 06:06:36;;;;;;;15.20;5.97;;;;;;;2.32;100.00;99445.02;1815647;79;20996;-76
2021/01/25 06:09:18;;;;;;;11.10;4.60;;;;;;;2.36;100.00;99453.11;1815415;79;20925;-68
2021/01/25 06:11:46;;;;;;;6.03;4.23;;;;;;;2.39;100.00;99452.84;1729016;81;21343;-71
2021/01/25 06:14:25;;;;;;;8.40;4.57;;;;;;;2.42;100.00;99451.22;1727537;83;20999;-70
2021/01/25 06:16:59;;;;;;;5.57;3.63;;;;;;;2.49;100.00;99446.20;1889791;76;26814;-71
2021/01/25 06:19:29;;;;;;;7.03;3.60;;;;;;;2.49;100.00;99454.21;1860750;77;20908;-70
2021/01/25 06:21:57;;;;;;;10.33;4.47;;;;;;;2.53;100.00;99452.95;1860901;77;21251;-72
2021/01/25 06:24:25;;;;;;;6.00;3.10;;;;;;;2.55;100.00;99446.16;1860897;77;20974;-74
2021/01/25 06:26:54;;;;;;;5.63;3.67;;;;;;;2.58;100.00;99447.23;1861463;77;21365;-76
2021/01/25 06:29:23;;;;;;;5.47;3.77;;;;;;;2.62;100.00;99452.64;1828529;77;21021;-76
2021/01/25 06:31:55;;;;;;;6.07;3.87;;;;;;;2.64;100.00;99455.55;1844032;77;21005;-76
2021/01/25 06:34:26;;;;;;;5.70;3.53;;;;;;;2.69;100.00;99449.78;1790959;80;21197;-75
2021/01/25 06:36:53;;;;;;;8.40;3.10;;;;;;;2.73;100.00;99445.05;1790718;80;21008;-75
2021/01/25 06:39:29;;;;;;;6.17;2.90;;;;;;;2.75;100.00;99436.41;1760448;80;21013;-73
2021/01/25 06:42:05;;;;;;;3.57;2.53;;;;;;;2.79;100.00;99448.50;1684492;85;21283;-76
2021/01/25 06:44:41;;;;;;;7.63;4.40;;;;;;;2.88;100.00;99450.34;1845197;75;26727;-77
2021/01/25 06:47:09;;;;;;;10.17;5.20;;;;;;;2.90;100.00;99464.41;1815531;79;20929;-75
2021/01/25 06:49:37;;;;;;;13.97;4.83;;;;;;;2.94;100.00;99460.50;1815425;79;21175;-75
2021/01/25 06:52:10;;;;;;;13.50;5.10;;;;;;;2.97;100.00;99458.03;1815677;79;20960;-75
2021/01/25 06:54:43;;;;;;;12.30;4.73;;;;;;;3.01;100.00;99454.09;1815570;79;20949;-75
2021/01/25 06:57:23;;;;;;;6.70;4.25;;;;;;;3.05;100.00;99444.84;1800071;78;20973;-77
2021/01/25 06:59:51;;;;;;;13.17;5.87;;;;;;;3.06;100.00;99443.84;1742720;81;21003;-72
2021/01/25 07:02:20;;;;;;;9.90;4.57;;;;;;;3.11;100.00;99446.95;1765348;81;21206;-74
2021/01/25 07:04:50;;;;;;;10.67;5.07;;;;;;;3.14;100.00;99451.20;1748166;81;21604;-73
2021/01/25 07:07:27;;;;;;;8.67;3.50;;;;;;;3.17;100.00;99442.88;1732356;82;21099;-74
2021/01/25 07:09:57;;;;;;;3.40;2.63;;;;;;;3.22;100.00;99458.88;1732460;81;21009;-72
2021/01/25 07:12:26;;;;;;;9.53;3.93;;;;;;;3.28;100.00;99457.98;1732383;82;21569;-75
2021/01/25 07:14:54;;;;;;;5.67;3.77;;;;;;;3.32;100.00;99458.04;1732346;82;21447;-74
2021/01/25 07:17:22;;;;;;;6.13;3.33;;;;;;;3.33;100.00;99447.22;1732103;82;21600;-71
2021/01/25 07:19:52;;;;;;;4.83;3.00;;;;;;;3.35;100.00;99451.92;1732195;82;21066;-72
2021/01/25 07:22:20;;;;;;;5.80;3.43;;;;;;;3.40;100.00;99454.19;1732181;82;21669;-74
2021/01/25 07:24:48;;;;;;;7.27;3.83;;;;;;;3.46;100.00;99455.45;1725283;82;21119;-74
2021/01/25 07:27:16;;;;;;;7.57;4.07;;;;;;;3.51;100.00;99455.88;1732323;82;22120;-73
2021/01/25 07:29:46;;;;;;;8.93;4.03;;;;;;;3.55;100.00;99455.95;1731938;82;21052;-70
2021/01/25 07:32:13;;;;;;;3.40;2.03;;;;;;;3.60;100.00;99453.70;1709259;82;21206;-72
2021/01/25 07:34:43;;;;;;;5.77;3.23;;;;;;;3.66;100.00;99452.28;1697717;84;20933;-75
2021/01/25 07:37:11;;;;;;;5.57;2.97;;;;;;;3.74;100.00;99456.45;1741521;80;21640;-75
2021/01/25 07:39:39;;;;;;;7.60;4.03;;;;;;;3.82;100.00;99431.66;1753970;81;20994;-75
2021/01/25 07:42:07;;;;;;;5.97;3.57;;;;;;;3.88;100.00;99441.30;1780065;79;21035;-73
2021/01/25 07:44:35;;;;;;;5.87;3.27;;;;;;;3.95;100.00;99437.56;1767392;80;21438;-74
2021/01/25 07:47:04;;;;;;;8.30;3.47;;;;;;;3.99;100.00;99429.59;1760802;79;21633;-74
2021/01/25 07:49:33;;;;;;;9.90;4.77;;;;;;;4.05;100.00;99432.18;1757557;80;21163;-75
2021/01/25 07:52:01;;;;;;;12.10;5.07;;;;;;;4.10;100.00;99435.27;1762140;80;22242;-77
2021/01/25 07:54:31;;;;;;;12.80;5.77;;;;;;;4.15;100.00;99430.33;1720057;82;20957;-81
2021/01/25 07:56:59;;;;;;;7.33;3.93;;;;;;;4.21;100.00;99435.09;1746864;80;20961;-78
2021/01/25 07:59:35;;;;;;;6.53;3.27;;;;;;;4.29;100.00;99439.23;1744216;82;21594;-76
2021/01/25 08:02:07;;;;;;;6.20;3.23;;;;;;;4.37;100.00;99439.36;1748488;80;21172;-76
2021/01/25 08:04:38;;;;;;;6.03;2.73;;;;;;;4.45;100.00;99431.92;1766103;79;22207;-82
2021/01/25 08:07:06;;;;;;;18.60;6.37;;;;;;;4.56;100.00;99440.27;1776347;79;21051;-76
2021/01/25 08:09:38;;;;;;;11.33;4.87;;;;;;;4.70;100.00;99433.59;1774487;80;20997;-73
2021/01/25 08:12:06;;;;;;;7.07;3.20;;;;;;;4.82;100.00;99434.25;1764712;80;21039;-76
2021/01/25 08:14:49;;;;;;;8.40;3.47;;;;;;;5.00;100.00;99436.45;1742588;80;21589;-76
2021/01/25 08:17:24;;;;;;;8.17;4.03;;;;;;;5.18;100.00;99441.84;1770510;80;21267;-79
2021/01/25 08:20:01;;;;;;;8.27;3.87;;;;;;;5.36;100.00;99437.00;1701267;84;21263;-74
2021/01/25 08:23:08;;;;;;;7.37;3.53;;;;;;;5.44;100.00;99443.29;1682874;85;21039;-75
2021/01/25 08:25:36;;;;;;;7.57;3.97;;;;;;;5.47;100.00;99428.24;1683012;85;21043;-75
2021/01/25 08:28:18;;;;;;;8.43;4.23;;;;;;;5.46;100.00;99434.59;1682997;85;21007;-74
2021/01/25 08:30:47;;;;;;;11.40;4.73;;;;;;;5.43;100.00;99426.84;1684686;82;21197;-74
2021/01/25 08:33:33;;;;;;;6.77;3.73;;;;;;;5.41;100.00;99426.16;1701871;84;21118;-73
2021/01/25 08:36:07;;;;;;;7.50;3.87;;;;;;;5.43;100.00;99435.39;1716558;83;21062;-74
2021/01/25 08:38:41;;;;;;;7.70;3.47;;;;;;;5.49;100.00;99424.91;1701995;84;21095;-73
2021/01/25 08:41:28;;;;;;;10.53;4.03;;;;;;;5.57;100.00;99421.45;1719506;83;21018;-74
2021/01/25 08:43:59;;;;;;;7.43;3.80;;;;;;;5.66;100.00;99412.97;1701570;84;21206;-73
2021/01/25 08:46:33;;;;;;;8.03;4.37;;;;;;;5.69;100.00;99422.06;1721735;83;21053;-74
2021/01/25 08:49:24;;;;;;;9.83;3.50;;;;;;;5.69;100.00;99413.50;1700625;84;21078;-75
2021/01/25 08:52:00;;;;;;;9.70;4.90;;;;;;;5.73;100.00;99402.47;1721572;83;21057;-79
2021/01/25 08:54:34;;;;;;;7.50;3.97;;;;;;;5.77;100.00;99410.06;1729268;83;21060;-73
2021/01/25 08:57:02;;;;;;;11.17;4.13;;;;;;;5.81;100.00;99394.50;1671856;85;21804;-73
2021/01/25 08:59:38;;;;;;;9.20;4.23;;;;;;;5.87;100.00;99397.38;1695805;83;21071;-72
2021/01/25 09:02:23;;;;;;;8.83;4.10;;;;;;;5.99;100.00;99398.52;1717428;83;21084;-73
2021/01/25 09:04:52;;;;;;;14.63;4.93;;;;;;;6.15;100.00;99399.95;1721311;83;21163;-71
2021/01/25 09:07:23;;;;;;;8.17;4.37;;;;;;;6.28;100.00;99394.15;1721482;83;21744;-72
2021/01/25 09:09:51;;;;;;;10.03;4.03;;;;;;;6.37;100.00;99386.47;1721702;83;22481;-73
2021/01/25 09:12:20;;;;;;;8.17;4.10;;;;;;;6.44;100.00;99384.83;1721649;83;20945;-72
2021/01/25 09:14:48;;;;;;;5.63;3.33;;;;;;;6.47;100.00;99382.34;1721743;83;20977;-74
2021/01/25 09:17:16;;;;;;;7.47;3.90;;;;;;;6.52;100.00;99377.33;1759127;81;21577;-72
2021/01/25 09:19:44;;;;;;;7.90;4.07;;;;;;;6.61;100.00;99376.86;1765050;81;20992;-72
2021/01/25 09:22:13;;;;;;;6.90;3.40;;;;;;;6.69;100.00;99370.67;1784483;80;21733;-73
2021/01/25 09:24:41;;;;;;;9.07;4.17;;;;;;;6.74;100.00;99371.03;1783772;79;21070;-73
2021/01/25 09:27:09;;;;;;;4.87;3.27;;;;;;;6.82;100.00;99369.20;1784583;79;20952;-72
2021/01/25 09:29:37;;;;;;;7.93;3.80;;;;;;;6.94;100.00;99364.38;1784596;80;20947;-73
2021/01/25 09:32:06;;;;;;;7.63;4.10;;;;;;;7.01;100.00;99361.37;1765797;79;20955;-74
2021/01/25 09:34:35;;;;;;;9.57;4.63;;;;;;;7.08;100.00;99354.81;1753807;81;21359;-76
2021/01/25 09:37:05;;;;;;;12.83;5.67;;;;;;;7.10;100.00;99372.12;1750901;80;21014;-72
2021/01/25 09:39:32;;;;;;;13.00;5.53;;;;;;;7.12;100.00;99377.69;1784655;80;21027;-72
2021/01/25 09:42:04;;;;;;;11.57;4.87;;;;;;;7.13;100.00;99378.52;1784651;80;20927;-74
2021/01/25 09:44:35;;;;;;;8.63;4.03;;;;;;;7.18;100.00;99370.80;1791391;80;21374;-76
2021/01/25 09:47:10;;;;;;;9.83;4.30;;;;;;;7.19;100.00;99364.44;1795172;80;21293;-72
2021/01/25 09:49:39;;;;;;;7.80;4.00;;;;;;;7.22;100.00;99358.70;1792813;78;21072;-73
2021/01/25 09:52:07;;;;;;;5.50;3.33;;;;;;;7.24;100.00;99371.47;1767749;80;21179;-72
2021/01/25 09:54:39;;;;;;;9.20;4.20;;;;;;;7.20;100.00;99370.96;1780353;80;21038;-73
2021/01/25 09:57:07;;;;;;;9.30;3.70;;;;;;;7.13;100.00;99376.66;1772448;80;20999;-75
2021/01/25 09:59:35;;;;;;;8.27;3.63;;;;;;;7.06;100.00;99362.72;1765958;80;22057;-73
2021/01/25 10:02:02;;;;;;;12.03;3.57;;;;;;;7.06;100.00;99362.20;1760017;80;20988;-73
2021/01/25 10:04:31;;;;;;;7.10;3.33;;;;;;;7.06;100.00;99346.07;1781852;80;21016;-76
2021/01/25 10:06:59;;;;;;;8.83;3.67;;;;;;;7.08;100.00;99352.63;1766791;80;21037;-74
2021/01/25 10:09:27;;;;;;;6.13;3.17;;;;;;;7.05;100.00;99348.44;1770710;80;21614;-75
2021/01/25 10:11:55;;;;;;;8.43;3.33;;;;;;;7.00;100.00;99349.44;1782923;80;21633;-74
2021/01/25 10:14:24;;;;;;;9.03;3.80;;;;;;;7.00;100.00;99344.89;1769985;79;21053;-72
2021/01/25 10:16:52;;;;;;;5.40;3.17;;;;;;;6.99;100.00;99339.67;1761726;80;21256;-74
2021/01/25 10:19:21;;;;;;;7.10;3.63;;;;;;;6.97;100.00;99330.43;1782061;80;20949;-73
2021/01/25 10:21:49;;;;;;;6.70;3.13;;;;;;;6.99;100.00;99319.52;1781821;80;21147;-73
2021/01/25 10:24:17;;;;;;;8.03;3.60;;;;;;;6.99;100.00;99319.04;1767494;80;21420;-74
2021/01/25 10:26:50;;;;;;;8.07;3.30;;;;;;;6.99;100.00;99315.00;1771668;80;21549;-72
2021/01/25 10:29:18;;;;;;;6.27;3.50;;;;;;;6.98;100.00;99305.25;1795968;80;21556;-77
2021/01/25 10:31:46;;;;;;;5.60;3.47;;;;;;;6.97;100.00;99295.48;1775137;80;20989;-80
2021/01/25 10:34:14;;;;;;;8.53;3.50;;;;;;;6.93;100.00;99294.66;1767138;80;21016;-78
2021/01/25 10:36:43;;;;;;;6.40;3.20;;;;;;;6.88;100.00;99297.83;1773319;80;21646;-80
2021/01/25 10:39:11;;;;;;;4.47;3.27;;;;;;;6.86;100.00;99300.36;1758799;80;21020;-79
2021/01/25 10:41:39;;;;;;;7.70;3.50;;;;;;;6.83;100.00;99294.80;1758704;81;20949;-80
2021/01/25 10:44:08;;;;;;;4.80;2.77;;;;;;;6.79;100.00;99288.09;1757513;81;20934;-80
2021/01/25 10:46:35;;;;;;;6.93;3.50;;;;;;;6.71;100.00;99299.66;1753126;81;21531;-79
2021/01/25 10:49:04;;;;;;;10.87;4.37;;;;;;;6.63;100.00;99286.20;1752837;81;22242;-78
2021/01/25 10:51:32;;;;;;;13.03;4.03;;;;;;;6.58;100.00;99278.63;1753145;81;21036;-84
2021/01/25 10:54:00;;;;;;;18.53;6.10;;;;;;;6.58;100.00;99274.59;1753057;81;20997;-79
2021/01/25 10:56:29;;;;;;;8.87;3.83;;;;;;;6.64;100.00;99285.21;1752917;81;20997;-80
2021/01/25 10:58:57;;;;;;;6.77;3.27;;;;;;;6.76;100.00;99278.48;1756848;79;21019;-75
2021/01/25 11:01:25;;;;;;;9.43;4.10;;;;;;;6.93;100.00;99275.84;1766431;81;21206;-81
2021/01/25 11:03:53;;;;;;;7.47;2.83;;;;;;;7.12;100.00;99288.11;1788950;80;21072;-79
2021/01/25 11:06:21;;;;;;;5.00;3.10;;;;;;;7.28;100.00;99277.37;1766372;81;20933;-81
2021/01/25 11:08:50;;;;;;;5.70;3.50;;;;;;;7.45;100.00;99268.77;1788931;80;21025;-78
2021/01/25 11:11:20;;;;;;;8.57;3.43;;;;;;;7.62;100.00;99268.77;1766222;81;21131;-80
2021/01/25 11:13:47;;;;;;;8.63;3.37;;;;;;;7.79;100.00;99259.63;1788795;80;22671;-79
2021/01/25 11:16:15;;;;;;;5.40;3.00;;;;;;;7.94;100.00;99255.22;1741081;80;21179;-77
2021/01/25 11:18:44;;;;;;;5.53;3.20;;;;;;;8.05;100.00;99251.31;1744032;82;21055;-76
2021/01/25 11:21:12;;;;;;;5.10;2.73;;;;;;;8.12;100.00;99238.00;1765571;79;21517;-78
2021/01/25 11:23:40;;;;;;;6.37;3.30;;;;;;;8.18;100.00;99241.35;1765632;80;20917;-77
2021/01/25 11:26:08;;;;;;;9.53;4.33;;;;;;;8.27;100.00;99233.56;1755534;81;21815;-78
2021/01/25 11:28:36;;;;;;;6.93;3.60;;;;;;;8.42;100.00;99236.84;1735091;82;21076;-80
2021/01/25 11:31:07;;;;;;;5.77;3.07;;;;;;;8.57;100.00;99224.34;1705097;81;21059;-80
2021/01/25 11:33:35;;;;;;;4.07;3.00;;;;;;;8.72;100.00;99232.48;1735413;82;21025;-79
2021/01/25 11:36:04;;;;;;;10.27;3.57;;;;;;;8.82;100.00;99229.05;1736066;82;21048;-77
2021/01/25 11:38:32;;;;;;;5.13;3.10;;;;;;;8.83;100.00;99237.45;1737004;80;21363;-79
2021/01/25 11:41:00;;;;;;;6.70;3.23;;;;;;;8.72;100.00;99222.53;1777611;79;20982;-77
2021/01/25 11:43:28;;;;;;;6.90;3.50;;;;;;;8.58;100.00;99216.56;1757438;81;20992;-80
2021/01/25 11:45:57;;;;;;;7.23;3.57;;;;;;;8.45;100.00;99214.98;1762729;81;21037;-77
2021/01/25 11:48:25;;;;;;;11.30;4.30;;;;;;;8.33;100.00;99209.94;1794143;80;21061;-78